createdAt,value
2023-03-20T00:01:31.279Z,4.13
2023-03-20T00:03:59.725Z,5.03
2023-03-20T00:06:29.893Z,3.90
2023-03-20T00:08:58.770Z,6.40
2023-03-20T00:11:37.527Z,5.60
2023-03-20T00:14:10.098Z,6.82
2023-03-20T00:16:40.305Z,6.70
2023-03-20T00:19:15.642Z,8.18
2023-03-20T00:21:46.002Z,6.32
2023-03-20T00:24:14.866Z,9.35
2023-03-20T00:26:44.314Z,6.78
2023-03-20T00:29:21.714Z,7.32
2023-03-20T00:31:50.372Z,6.53
2023-03-20T00:34:21.205Z,6.20
2023-03-20T00:36:49.733Z,5.43
2023-03-20T00:39:18.828Z,5.72
2023-03-20T00:41:50.892Z,5.40
2023-03-20T00:44:25.843Z,7.40
2023-03-20T00:46:59.209Z,5.82
2023-03-20T00:49:29.788Z,5.97
2023-03-20T00:51:59.391Z,7.90
2023-03-20T00:54:27.995Z,8.73
2023-03-20T00:57:00.633Z,10.13
2023-03-20T00:59:33.143Z,8.25
2023-03-20T01:02:03.037Z,8.68
2023-03-20T01:04:36.839Z,10.40
2023-03-20T01:07:07.184Z,11.25
2023-03-20T01:09:36.031Z,8.68
2023-03-20T01:12:08.491Z,8.70
2023-03-20T01:14:38.170Z,8.18
2023-03-20T01:17:06.907Z,9.90
2023-03-20T01:19:36.549Z,12.13
2023-03-20T01:22:05.099Z,9.27
2023-03-20T01:24:33.770Z,11.45
2023-03-20T01:27:04.102Z,15.63
2023-03-20T01:29:33.229Z,11.40
2023-03-20T01:32:03.845Z,11.95
2023-03-20T01:34:32.483Z,12.45
2023-03-20T01:37:00.958Z,12.18
2023-03-20T01:39:34.832Z,11.80
2023-03-20T01:42:05.897Z,13.63
2023-03-20T01:44:36.231Z,13.63
2023-03-20T01:47:17.541Z,16.42
2023-03-20T01:50:26.697Z,13.82
2023-03-20T01:53:08.174Z,14.38
2023-03-20T01:55:41.095Z,12.73
2023-03-20T01:58:14.293Z,14.32
2023-03-20T02:00:43.324Z,17.52
2023-03-20T02:03:14.123Z,21.25
2023-03-20T02:05:43.757Z,17.25
2023-03-20T02:08:23.998Z,18.20
2023-03-20T02:10:53.072Z,17.00
2023-03-20T02:13:22.259Z,18.98
2023-03-20T02:15:59.332Z,17.90
2023-03-20T02:18:29.771Z,20.00
2023-03-20T02:21:25.958Z,22.30
2023-03-20T02:24:21.690Z,18.90
2023-03-20T02:26:59.172Z,20.48
2023-03-20T02:30:07.611Z,25.42
2023-03-20T02:33:20.336Z,20.70
2023-03-20T02:36:38.246Z,22.23
2023-03-20T02:39:25.615Z,26.27
2023-03-20T02:42:01.846Z,27.67
2023-03-20T02:44:38.899Z,29.52
2023-03-20T02:47:12.604Z,31.27
2023-03-20T02:49:55.930Z,36.58
2023-03-20T02:52:33.510Z,35.80
2023-03-20T02:55:16.141Z,36.38
2023-03-20T02:57:53.073Z,35.83
2023-03-20T03:00:29.506Z,36.13
2023-03-20T03:03:07.261Z,39.28
2023-03-20T03:05:39.850Z,38.33
2023-03-20T03:08:13.789Z,44.20
2023-03-20T03:10:46.579Z,43.03
2023-03-20T03:13:18.338Z,43.22
2023-03-20T03:15:50.496Z,42.92
2023-03-20T03:18:22.823Z,37.70
2023-03-20T03:20:56.740Z,41.35
2023-03-20T03:23:30.913Z,45.72
2023-03-20T03:26:03.572Z,42.30
2023-03-20T03:28:37.638Z,39.40
2023-03-20T03:31:08.396Z,42.28
2023-03-20T03:33:40.545Z,42.35
2023-03-20T03:36:19.279Z,41.83
2023-03-20T03:38:55.555Z,38.50
2023-03-20T03:41:32.790Z,35.42
2023-03-20T03:44:12.053Z,33.15
2023-03-20T03:46:46.936Z,41.13
2023-03-20T03:49:22.276Z,38.00
2023-03-20T03:51:55.816Z,34.88
2023-03-20T03:54:27.139Z,33.70
2023-03-20T03:56:58.949Z,35.90
2023-03-20T03:59:32.951Z,37.05
2023-03-20T04:02:03.735Z,32.70
2023-03-20T04:04:33.892Z,33.55
2023-03-20T04:07:02.265Z,40.67
2023-03-20T04:09:30.638Z,31.77
2023-03-20T04:12:00.635Z,33.83
2023-03-20T04:14:29.740Z,32.97
2023-03-20T04:16:58.648Z,35.20
2023-03-20T04:19:27.013Z,36.58
2023-03-20T04:21:56.003Z,39.13
2023-03-20T04:24:24.402Z,39.30
2023-03-20T04:26:52.859Z,35.72
2023-03-20T04:29:22.902Z,34.15
2023-03-20T04:31:51.503Z,37.47
2023-03-20T04:34:19.850Z,35.63
2023-03-20T04:36:49.698Z,38.28
2023-03-20T04:39:18.088Z,33.40
2023-03-20T04:41:47.197Z,35.90
2023-03-20T04:44:15.785Z,33.67
2023-03-20T04:46:45.433Z,33.33
2023-03-20T04:49:13.997Z,38.70
2023-03-20T04:51:42.467Z,31.77
2023-03-20T04:54:10.935Z,37.80
2023-03-20T04:56:39.470Z,40.00
2023-03-20T04:59:08.168Z,38.28
2023-03-20T05:01:36.934Z,35.50
2023-03-20T05:04:07.269Z,38.97
2023-03-20T05:06:35.973Z,40.78
2023-03-20T05:09:04.266Z,45.22
2023-03-20T05:11:33.494Z,41.78
2023-03-20T05:14:01.889Z,43.85
2023-03-20T05:16:30.246Z,41.08
2023-03-20T05:18:58.892Z,43.17
2023-03-20T05:21:28.466Z,42.47
2023-03-20T05:23:56.842Z,41.65
2023-03-20T05:26:25.032Z,50.05
2023-03-20T05:28:53.579Z,41.13
2023-03-20T05:31:49.303Z,42.38
2023-03-20T05:34:18.183Z,44.10
2023-03-20T05:36:48.205Z,44.58
2023-03-20T05:39:16.617Z,49.45
2023-03-20T05:41:45.967Z,47.65
2023-03-20T05:44:14.562Z,43.30
2023-03-20T05:46:42.754Z,44.42
2023-03-20T05:49:11.176Z,50.85
2023-03-20T05:51:40.111Z,48.08
2023-03-20T05:54:12.874Z,46.78
2023-03-20T05:56:41.203Z,45.28
2023-03-20T05:59:09.985Z,45.85
2023-03-20T06:01:38.248Z,49.85
2023-03-20T06:04:08.494Z,48.10
2023-03-20T06:06:38.216Z,42.85
2023-03-20T06:09:07.284Z,46.28
2023-03-20T06:11:37.759Z,44.15
2023-03-20T06:14:06.337Z,43.60
2023-03-20T06:16:35.779Z,46.83
2023-03-20T06:19:03.988Z,43.22
2023-03-20T06:21:32.381Z,48.88
2023-03-20T06:24:01.315Z,49.53
2023-03-20T06:26:29.460Z,49.10
2023-03-20T06:28:59.735Z,50.90
2023-03-20T06:31:28.092Z,50.08
2023-03-20T06:33:56.619Z,48.92
2023-03-20T06:36:26.479Z,49.20
2023-03-20T06:38:56.618Z,55.25
2023-03-20T06:41:34.124Z,46.35
2023-03-20T06:44:05.257Z,49.35
2023-03-20T06:46:33.832Z,50.47
2023-03-20T06:49:03.291Z,48.90
2023-03-20T06:51:31.651Z,52.63
2023-03-20T06:54:01.023Z,55.85
2023-03-20T06:56:30.302Z,47.33
2023-03-20T06:59:00.938Z,50.45
2023-03-20T07:01:30.968Z,45.20
2023-03-20T07:03:59.375Z,39.17
2023-03-20T07:06:28.262Z,49.88
2023-03-20T07:08:57.157Z,47.42
2023-03-20T07:11:26.509Z,45.53
2023-03-20T07:13:55.026Z,43.47
2023-03-20T07:16:23.862Z,47.72
2023-03-20T07:18:53.814Z,48.03
2023-03-20T07:21:24.178Z,46.05
2023-03-20T07:23:52.627Z,42.47
2023-03-20T07:26:21.699Z,49.40
2023-03-20T07:28:50.160Z,48.20
2023-03-20T07:31:22.002Z,45.42
2023-03-20T07:33:50.952Z,47.17
2023-03-20T07:36:21.657Z,52.03
2023-03-20T07:38:50.889Z,51.20
2023-03-20T07:41:19.842Z,49.17
2023-03-20T07:43:48.100Z,56.35
2023-03-20T07:46:17.478Z,59.72
2023-03-20T07:48:46.829Z,62.65
2023-03-20T07:51:15.112Z,67.80
2023-03-20T07:53:44.659Z,65.20
2023-03-20T07:56:13.090Z,65.75
2023-03-20T07:58:41.928Z,67.15
2023-03-20T08:01:10.631Z,65.18
2023-03-20T08:03:39.973Z,70.72
2023-03-20T08:06:11.252Z,78.63
2023-03-20T08:08:42.178Z,69.00
2023-03-20T08:11:13.441Z,65.80
2023-03-20T08:13:41.906Z,74.30
2023-03-20T08:16:11.273Z,75.43
2023-03-20T08:18:40.163Z,70.32
2023-03-20T08:21:08.931Z,76.75
2023-03-20T08:23:38.048Z,73.72
2023-03-20T08:26:07.237Z,74.30
2023-03-20T08:28:47.040Z,73.03
2023-03-20T08:31:17.791Z,70.65
2023-03-20T08:33:47.447Z,71.55
2023-03-20T08:36:20.377Z,76.70
2023-03-20T08:38:49.697Z,76.07
2023-03-20T08:41:19.280Z,75.70
2023-03-20T08:43:49.693Z,74.50
2023-03-20T08:46:17.986Z,75.45
2023-03-20T08:48:47.917Z,76.60
2023-03-20T08:51:16.464Z,75.45
2023-03-20T08:53:44.947Z,76.00
2023-03-20T08:56:13.231Z,74.78
2023-03-20T08:58:41.518Z,76.57
2023-03-20T09:01:12.582Z,69.15
2023-03-20T09:03:41.266Z,74.63
2023-03-20T09:06:11.165Z,72.20
2023-03-20T09:08:41.906Z,65.40
2023-03-20T09:11:10.794Z,76.10
2023-03-20T09:13:39.281Z,67.20
2023-03-20T09:16:08.354Z,70.78
2023-03-20T09:18:38.343Z,70.85
2023-03-20T09:21:07.169Z,76.07
2023-03-20T09:23:35.727Z,77.57
2023-03-20T09:26:04.763Z,71.72
2023-03-20T09:28:32.994Z,67.85
2023-03-20T09:31:02.138Z,72.03
2023-03-20T09:33:32.201Z,73.97
2023-03-20T09:36:01.981Z,74.95
2023-03-20T09:38:30.872Z,77.88
2023-03-20T09:41:01.452Z,71.25
2023-03-20T09:43:51.927Z,74.40
2023-03-20T09:46:32.249Z,69.70
2023-03-20T09:49:08.870Z,74.93
2023-03-20T09:51:48.842Z,77.55
2023-03-20T09:54:53.294Z,75.75
2023-03-20T09:57:25.968Z,74.32
2023-03-20T09:59:58.796Z,76.60
2023-03-20T10:02:39.482Z,74.22
2023-03-20T10:05:18.531Z,74.72
2023-03-20T10:07:50.048Z,89.43
2023-03-20T10:10:20.674Z,78.95
2023-03-20T10:13:03.818Z,77.60
2023-03-20T10:15:44.776Z,72.63
2023-03-20T10:18:22.558Z,70.65
2023-03-20T10:20:58.806Z,68.15
2023-03-20T10:23:37.398Z,67.30
2023-03-20T10:26:09.839Z,59.10
2023-03-20T10:28:43.989Z,54.25
2023-03-20T10:31:26.439Z,55.35
2023-03-20T10:34:05.682Z,47.25
2023-03-20T10:36:47.458Z,41.10
2023-03-20T10:39:24.931Z,36.33
2023-03-20T10:41:56.581Z,35.75
2023-03-20T10:44:33.026Z,34.50
2023-03-20T10:47:03.367Z,26.40
2023-03-20T10:49:39.694Z,27.73
2023-03-20T10:52:16.574Z,25.98
2023-03-20T10:54:51.214Z,26.88
2023-03-20T10:58:00.136Z,24.35
2023-03-20T11:00:30.650Z,24.08
2023-03-20T11:03:29.161Z,23.45
2023-03-20T11:06:09.658Z,21.92
2023-03-20T11:08:41.983Z,22.05
2023-03-20T11:11:12.105Z,21.30
2023-03-20T11:13:43.129Z,22.95
2023-03-20T11:16:18.938Z,21.48
2023-03-20T11:18:49.555Z,18.60
2023-03-20T11:21:23.590Z,17.77
2023-03-20T11:23:53.210Z,20.20
2023-03-20T11:26:36.485Z,19.95
2023-03-20T11:29:10.093Z,19.38
2023-03-20T11:31:52.180Z,16.58
2023-03-20T11:34:27.842Z,18.02
2023-03-20T11:37:09.637Z,19.35
2023-03-20T11:39:40.180Z,18.98
2023-03-20T11:42:25.488Z,20.02
2023-03-20T11:45:05.224Z,15.02
2023-03-20T11:47:37.040Z,20.05
2023-03-20T11:50:08.340Z,18.70
2023-03-20T11:52:39.029Z,20.70
2023-03-20T11:55:23.590Z,16.20
2023-03-20T11:57:58.244Z,17.20
2023-03-20T12:00:30.002Z,20.17
2023-03-20T12:02:58.312Z,18.77
2023-03-20T12:05:32.907Z,15.23
2023-03-20T12:08:07.364Z,16.35
2023-03-20T12:10:40.693Z,17.20
2023-03-20T12:13:18.247Z,16.00
2023-03-20T12:15:50.391Z,16.17
2023-03-20T12:18:26.384Z,19.17
2023-03-20T12:21:05.636Z,16.92
2023-03-20T12:23:38.816Z,16.05
2023-03-20T12:26:10.206Z,17.55
2023-03-20T12:28:44.388Z,20.40
2023-03-20T12:31:27.391Z,14.63
2023-03-20T12:34:01.512Z,15.50
2023-03-20T12:36:34.953Z,16.60
2023-03-20T12:39:09.120Z,17.50
2023-03-20T12:41:50.960Z,14.65
2023-03-20T12:44:31.107Z,15.07
2023-03-20T12:47:16.753Z,17.02
2023-03-20T12:49:54.399Z,13.60
2023-03-20T12:52:32.294Z,14.68
2023-03-20T12:55:18.245Z,15.50
2023-03-20T12:58:02.816Z,15.63
2023-03-20T13:00:39.023Z,16.80
2023-03-20T13:03:26.495Z,14.20
2023-03-20T13:06:58.565Z,17.92
2023-03-20T13:09:44.929Z,15.30
2023-03-20T13:12:24.671Z,14.30
2023-03-20T13:15:03.295Z,16.52
2023-03-20T13:17:37.402Z,19.98
2023-03-20T13:20:23.319Z,16.30
2023-03-20T13:23:04.438Z,16.15
2023-03-20T13:25:54.733Z,14.98
2023-03-20T13:28:30.953Z,16.45
2023-03-20T13:31:07.562Z,13.57
2023-03-20T13:33:48.760Z,14.00
2023-03-20T13:36:29.254Z,14.93
2023-03-20T13:39:04.083Z,13.40
2023-03-20T13:41:35.368Z,12.82
2023-03-20T13:44:06.695Z,14.77
2023-03-20T13:46:40.306Z,12.55
2023-03-20T13:49:17.433Z,13.32
2023-03-20T13:51:55.012Z,14.82
2023-03-20T13:54:57.258Z,13.50
2023-03-20T13:57:49.375Z,13.25
2023-03-20T14:00:29.186Z,16.10
2023-03-20T14:03:16.215Z,15.27
2023-03-20T14:05:47.558Z,12.93
2023-03-20T14:08:33.773Z,14.68
2023-03-20T14:11:16.100Z,17.35
2023-03-20T14:13:48.014Z,14.00
2023-03-20T14:16:20.121Z,14.10
2023-03-20T14:18:51.771Z,12.88
2023-03-20T14:21:25.183Z,16.70
2023-03-20T14:24:02.053Z,12.70
2023-03-20T14:26:33.041Z,15.60
2023-03-20T14:29:04.569Z,12.88
2023-03-20T14:31:38.367Z,11.38
2023-03-20T14:34:16.956Z,10.60
2023-03-20T14:36:58.629Z,10.05
2023-03-20T14:39:37.873Z,9.57
2023-03-20T14:42:22.543Z,8.65
2023-03-20T14:45:43.459Z,9.10
2023-03-20T14:48:19.748Z,9.68
2023-03-20T14:51:03.242Z,7.60
2023-03-20T14:53:34.165Z,7.65
2023-03-20T14:56:11.686Z,7.20
2023-03-20T14:58:54.708Z,6.90
2023-03-20T15:01:35.317Z,6.35
2023-03-20T15:04:09.196Z,6.75
2023-03-20T15:06:46.160Z,6.28
2023-03-20T15:09:16.917Z,7.25
2023-03-20T15:11:45.330Z,5.28
2023-03-20T15:14:21.494Z,6.32
2023-03-20T15:16:52.261Z,5.38
2023-03-20T15:19:21.464Z,8.32
2023-03-20T15:21:51.252Z,4.53
2023-03-20T15:24:24.782Z,3.72
2023-03-20T15:26:55.568Z,6.05
2023-03-20T15:29:24.557Z,4.63
2023-03-20T15:32:12.514Z,4.80
2023-03-20T15:34:44.111Z,5.75
2023-03-20T15:37:16.582Z,6.55
2023-03-20T15:39:48.770Z,4.13
2023-03-20T15:42:21.377Z,8.00
2023-03-20T15:44:51.906Z,7.00
2023-03-20T15:47:22.302Z,8.02
2023-03-20T15:49:53.692Z,5.85
2023-03-20T15:52:28.863Z,5.28
2023-03-20T15:55:00.930Z,5.70
2023-03-20T15:57:35.751Z,7.90
2023-03-20T16:00:07.401Z,3.97
2023-03-20T16:02:38.346Z,5.95
2023-03-20T16:05:13.199Z,7.07
2023-03-20T16:07:42.651Z,7.07
2023-03-20T16:10:20.648Z,6.88
2023-03-20T16:12:51.204Z,6.63
2023-03-20T16:15:25.298Z,8.40
2023-03-20T16:17:57.364Z,5.60
2023-03-20T16:20:27.032Z,9.20
2023-03-20T16:23:00.744Z,7.32
2023-03-20T16:25:30.677Z,9.80
2023-03-20T16:28:00.228Z,6.30
2023-03-20T16:30:32.992Z,6.90
2023-03-20T16:33:03.316Z,8.07
2023-03-20T16:35:41.186Z,8.32
2023-03-20T16:38:17.665Z,6.68
2023-03-20T16:40:49.762Z,10.25
2023-03-20T16:43:21.184Z,8.15
2023-03-20T16:45:54.576Z,8.70
2023-03-20T16:48:31.987Z,8.13
2023-03-20T16:51:05.296Z,6.93
2023-03-20T16:53:41.480Z,8.10
2023-03-20T16:56:17.331Z,7.95
2023-03-20T16:58:47.021Z,11.48
2023-03-20T17:01:20.131Z,8.98
2023-03-20T17:03:52.287Z,12.13
2023-03-20T17:06:39.430Z,6.32
2023-03-20T17:09:27.017Z,11.63
2023-03-20T17:12:07.295Z,8.18
2023-03-20T17:14:35.607Z,11.43
2023-03-20T17:17:03.993Z,11.73
2023-03-20T17:19:34.118Z,11.10
2023-03-20T17:22:05.557Z,13.02
2023-03-20T17:24:33.934Z,10.32
2023-03-20T17:27:03.935Z,11.40
2023-03-20T17:29:32.602Z,11.82
2023-03-20T17:32:00.876Z,9.82
2023-03-20T17:34:29.583Z,11.38
2023-03-20T17:37:00.044Z,11.20
2023-03-20T17:39:29.141Z,9.68
2023-03-20T17:41:58.028Z,11.98
2023-03-20T17:44:28.230Z,7.03
2023-03-20T17:46:59.063Z,8.48
2023-03-20T17:49:28.733Z,9.73
2023-03-20T17:51:57.708Z,8.48
2023-03-20T17:54:29.437Z,7.53
2023-03-20T17:56:57.869Z,12.20
2023-03-20T17:59:31.161Z,10.77
2023-03-20T18:02:00.244Z,9.35
2023-03-20T18:04:29.925Z,9.20
2023-03-20T18:06:58.853Z,7.07
2023-03-20T18:09:27.538Z,7.18
2023-03-20T18:11:56.727Z,6.53
2023-03-20T18:14:27.850Z,7.10
2023-03-20T18:16:56.370Z,7.05
2023-03-20T18:19:28.382Z,4.88
2023-03-20T18:21:58.668Z,4.97
2023-03-20T18:24:27.745Z,8.23
2023-03-20T18:26:57.319Z,4.72
2023-03-20T18:29:27.097Z,9.00
2023-03-20T18:31:55.532Z,7.50
2023-03-20T18:34:23.883Z,7.90
2023-03-20T18:36:52.854Z,4.13
2023-03-20T18:39:22.974Z,5.57
2023-03-20T18:41:51.987Z,7.80
2023-03-20T18:44:20.401Z,5.70
2023-03-20T18:46:51.063Z,5.28
2023-03-20T18:49:21.204Z,5.72
2023-03-20T18:51:50.618Z,10.02
2023-03-20T18:54:19.693Z,7.07
2023-03-20T18:56:49.881Z,4.22
2023-03-20T18:59:19.373Z,5.40
2023-03-20T19:01:53.073Z,4.95
2023-03-20T19:04:23.138Z,5.85
2023-03-20T19:06:51.480Z,6.15
2023-03-20T19:09:21.763Z,6.60
2023-03-20T19:11:50.364Z,4.00
2023-03-20T19:14:19.584Z,4.80
2023-03-20T19:16:48.369Z,4.82
2023-03-20T19:19:18.778Z,5.55
2023-03-20T19:21:47.030Z,6.45
2023-03-20T19:24:15.312Z,6.20
2023-03-20T19:26:43.609Z,4.70
2023-03-20T19:29:14.126Z,4.60
2023-03-20T19:31:42.419Z,6.43
2023-03-20T19:34:34.987Z,4.88
2023-03-20T19:37:01.338Z,4.50
2023-03-20T19:39:31.067Z,4.93
2023-03-20T19:42:18.481Z,6.60
2023-03-20T19:44:47.648Z,4.18
2023-03-20T19:47:15.978Z,8.45
2023-03-20T19:49:44.772Z,4.65
2023-03-20T19:52:23.777Z,5.80
2023-03-20T19:55:02.109Z,4.22
2023-03-20T19:57:31.811Z,3.45
2023-03-20T20:02:48.932Z,3.88
2023-03-20T20:05:21.933Z,5.40
2023-03-20T20:08:24.237Z,4.03
2023-03-20T20:10:43.026Z,7.30
2023-03-20T20:13:17.823Z,5.70
2023-03-20T20:15:48.088Z,4.53
2023-03-20T20:18:21.226Z,7.07
2023-03-20T20:21:59.656Z,7.55
2023-03-20T20:23:42.541Z,6.78
2023-03-20T20:26:12.327Z,8.13
2023-03-20T20:28:40.801Z,4.60
2023-03-20T20:31:08.913Z,8.93
2023-03-20T20:33:37.572Z,10.98
2023-03-20T20:36:58.940Z,7.68
2023-03-20T20:39:02.519Z,8.02
2023-03-20T20:41:31.125Z,7.40
2023-03-20T20:44:17.568Z,8.52
2023-03-20T20:46:46.866Z,9.70
2023-03-20T20:49:19.581Z,8.90
2023-03-20T20:51:48.219Z,8.48
2023-03-20T20:54:20.950Z,7.03
2023-03-20T20:56:49.426Z,6.82
2023-03-20T20:59:18.076Z,6.78
2023-03-20T21:01:46.877Z,7.72
2023-03-20T21:04:15.485Z,10.30
2023-03-20T21:07:09.863Z,10.68
2023-03-20T21:09:39.599Z,10.35
2023-03-20T21:12:22.665Z,9.55
2023-03-20T21:14:59.919Z,9.90
2023-03-20T21:17:30.684Z,12.05
2023-03-20T21:19:58.946Z,14.90
2023-03-20T21:22:27.451Z,8.13
2023-03-20T21:25:13.122Z,7.60
2023-03-20T21:27:42.751Z,9.57
2023-03-20T21:30:13.504Z,11.82
2023-03-20T21:32:41.898Z,12.40
2023-03-20T21:35:10.645Z,10.68
2023-03-20T21:40:29.805Z,10.13
2023-03-20T21:42:59.457Z,9.45
2023-03-20T21:48:56.292Z,8.32
2023-03-20T21:52:23.995Z,9.55
2023-03-20T22:00:14.155Z,11.60
2023-03-20T22:02:27.772Z,6.85
2023-03-20T22:08:38.083Z,11.20
2023-03-20T22:14:30.907Z,11.60
2023-03-20T22:17:17.644Z,7.88
2023-03-20T22:19:50.276Z,8.68
2023-03-20T22:25:27.562Z,11.23
2023-03-20T22:28:15.925Z,10.55
2023-03-20T22:31:22.569Z,8.65
2023-03-20T22:39:22.838Z,7.75
2023-03-20T22:42:40.389Z,9.32
2023-03-20T22:44:57.304Z,11.85
2023-03-20T22:47:23.111Z,9.95
2023-03-20T22:49:54.965Z,8.85
2023-03-20T22:52:32.087Z,6.72
2023-03-20T22:55:07.512Z,14.27
2023-03-20T22:57:45.579Z,7.53
2023-03-20T23:00:22.154Z,6.47
2023-03-20T23:02:54.963Z,8.25
2023-03-20T23:05:25.795Z,9.88
2023-03-20T23:07:53.997Z,7.63
2023-03-20T23:10:25.394Z,10.25
2023-03-20T23:12:53.820Z,14.23
2023-03-20T23:15:23.015Z,8.23
2023-03-20T23:17:52.971Z,9.27
2023-03-20T23:20:21.853Z,8.95
2023-03-20T23:22:50.752Z,10.10
2023-03-20T23:25:30.985Z,9.77
2023-03-20T23:28:06.840Z,8.43
2023-03-20T23:30:46.575Z,10.75
2023-03-20T23:33:19.842Z,9.30
2023-03-20T23:35:48.765Z,11.02
2023-03-20T23:38:17.914Z,13.23
2023-03-20T23:40:50.142Z,8.38
2023-03-20T23:43:18.892Z,11.02
2023-03-20T23:45:47.293Z,10.43
2023-03-20T23:48:16.906Z,9.25
2023-03-20T23:50:52.890Z,10.68
2023-03-20T23:53:21.779Z,9.07
2023-03-20T23:55:51.790Z,7.75
2023-03-20T23:58:20.972Z,11.18
